TAM3460 SBBR-SBFI
Flight info
| Callsign | TAM3460 |
|---|---|
| Flight time | N/A |
| Altitude | 34000 |
| Route | KUKOL UM532 PAMUS DCT UPORU |
| Aircraft | A21N/M-SDE3FGHIRWY/LB1 |
Departure
| Time | N/A |
|---|---|
| Airport | Presidente Juscelino Kubitschek International Airport (SBBR) |
Arrival
| Time | 2026-04-20 16:45 |
|---|---|
| Airport | Cataratas International Airport (SBFI) |
| Time | Latitude | Longitude | Altitude | Speed | Heading |
|---|---|---|---|---|---|
| 2026-04-20 15:27 | -18.57845 | -49.44975 | 33987 ft | 427 kts | 209° |
| 2026-04-20 15:28 | -18.63124 | -49.47841 | 33988 ft | 427 kts | 209° |
| 2026-04-20 15:28 | -18.68404 | -49.50709 | 33991 ft | 427 kts | 209° |
| 2026-04-20 15:29 | -18.73677 | -49.53579 | 33987 ft | 427 kts | 209° |
| 2026-04-20 15:29 | -18.78921 | -49.56432 | 33993 ft | 427 kts | 209° |
| 2026-04-20 15:30 | -18.84225 | -49.59326 | 33989 ft | 427 kts | 209° |
| 2026-04-20 15:30 | -18.89463 | -49.62200 | 33989 ft | 427 kts | 209° |
| 2026-04-20 15:31 | -18.94733 | -49.65090 | 33985 ft | 427 kts | 209° |
| 2026-04-20 15:31 | -19.00004 | -49.67987 | 33988 ft | 427 kts | 209° |
| 2026-04-20 15:32 | -19.05265 | -49.70879 | 33987 ft | 427 kts | 209° |
| 2026-04-20 15:32 | -19.10533 | -49.73776 | 33995 ft | 427 kts | 209° |
| 2026-04-20 15:33 | -19.15807 | -49.76682 | 33992 ft | 427 kts | 209° |
| 2026-04-20 15:33 | -19.21084 | -49.79586 | 33994 ft | 427 kts | 209° |
| 2026-04-20 15:34 | -19.26354 | -49.82490 | 33994 ft | 427 kts | 210° |
| 2026-04-20 15:34 | -19.31627 | -49.85400 | 33995 ft | 427 kts | 209° |
| 2026-04-20 15:35 | -19.36910 | -49.88296 | 33996 ft | 428 kts | 209° |
| 2026-04-20 15:35 | -19.42227 | -49.91128 | 33994 ft | 428 kts | 208° |
| 2026-04-20 15:36 | -19.47547 | -49.93967 | 33994 ft | 428 kts | 208° |
| 2026-04-20 15:36 | -19.52865 | -49.96823 | 33996 ft | 428 kts | 208° |
| 2026-04-20 15:37 | -19.58180 | -49.99676 | 33997 ft | 429 kts | 208° |
| 2026-04-20 15:37 | -19.63502 | -50.02531 | 33995 ft | 429 kts | 208° |
| 2026-04-20 15:38 | -19.68820 | -50.05386 | 34006 ft | 429 kts | 208° |
| 2026-04-20 15:38 | -19.74144 | -50.08247 | 34004 ft | 429 kts | 209° |
| 2026-04-20 15:39 | -19.79458 | -50.11108 | 34002 ft | 428 kts | 208° |
| 2026-04-20 15:39 | -19.84774 | -50.13972 | 34003 ft | 428 kts | 209° |
| 2026-04-20 15:40 | -19.90090 | -50.16837 | 34000 ft | 428 kts | 209° |
| 2026-04-20 15:40 | -19.95370 | -50.19683 | 34000 ft | 428 kts | 209° |
| 2026-04-20 15:41 | -20.00678 | -50.22547 | 34003 ft | 428 kts | 209° |
| 2026-04-20 15:41 | -20.05991 | -50.25426 | 34007 ft | 428 kts | 209° |
| 2026-04-20 15:42 | -20.11299 | -50.28303 | 34005 ft | 428 kts | 209° |
| 2026-04-20 15:42 | -20.16612 | -50.31189 | 34006 ft | 428 kts | 209° |
| 2026-04-20 15:43 | -20.21909 | -50.34073 | 34005 ft | 428 kts | 209° |
| 2026-04-20 15:43 | -20.27215 | -50.36961 | 34006 ft | 428 kts | 209° |
| 2026-04-20 15:44 | -20.32519 | -50.39851 | 34011 ft | 428 kts | 209° |
| 2026-04-20 15:44 | -20.37825 | -50.42746 | 34010 ft | 428 kts | 209° |
| 2026-04-20 15:45 | -20.43122 | -50.45635 | 34007 ft | 428 kts | 209° |
| 2026-04-20 15:45 | -20.48418 | -50.48527 | 34007 ft | 427 kts | 209° |
| 2026-04-20 15:46 | -20.53714 | -50.51423 | 34010 ft | 428 kts | 209° |
| 2026-04-20 15:46 | -20.59010 | -50.54319 | 34010 ft | 428 kts | 209° |
| 2026-04-20 15:47 | -20.64308 | -50.57217 | 34009 ft | 428 kts | 208° |
| 2026-04-20 15:47 | -20.69615 | -50.60126 | 34010 ft | 428 kts | 208° |
| 2026-04-20 15:48 | -20.74915 | -50.63030 | 34009 ft | 429 kts | 209° |
| 2026-04-20 15:48 | -20.80216 | -50.65952 | 34011 ft | 429 kts | 209° |
| 2026-04-20 15:49 | -20.85486 | -50.68945 | 34011 ft | 429 kts | 210° |
| 2026-04-20 15:49 | -20.90760 | -50.71935 | 34015 ft | 429 kts | 209° |
| 2026-04-20 15:50 | -20.96060 | -50.74936 | 34016 ft | 431 kts | 209° |
| 2026-04-20 15:50 | -21.01368 | -50.77945 | 34015 ft | 432 kts | 209° |
| 2026-04-20 15:51 | -21.06676 | -50.80954 | 34015 ft | 432 kts | 209° |
| 2026-04-20 15:51 | -21.11984 | -50.83970 | 34018 ft | 432 kts | 209° |
| 2026-04-20 15:52 | -21.17285 | -50.86985 | 34019 ft | 432 kts | 210° |
| 2026-04-20 15:52 | -21.22587 | -50.90012 | 34023 ft | 432 kts | 210° |
| 2026-04-20 15:53 | -21.30555 | -50.94552 | 34022 ft | 432 kts | 210° |
| 2026-04-20 15:53 | -21.35861 | -50.97576 | 34020 ft | 432 kts | 210° |
| 2026-04-20 15:54 | -21.41175 | -51.00604 | 34020 ft | 432 kts | 210° |
| 2026-04-20 15:54 | -21.46485 | -51.03639 | 34021 ft | 433 kts | 210° |
| 2026-04-20 15:55 | -21.51804 | -51.06663 | 34022 ft | 433 kts | 209° |
| 2026-04-20 15:55 | -21.57132 | -51.09688 | 34021 ft | 433 kts | 209° |
| 2026-04-20 15:56 | -21.62477 | -51.12676 | 34020 ft | 433 kts | 209° |
| 2026-04-20 15:56 | -21.66925 | -51.15164 | 34024 ft | 433 kts | 209° |
| 2026-04-20 15:57 | -21.72266 | -51.18160 | 34020 ft | 433 kts | 209° |
| 2026-04-20 15:57 | -21.77637 | -51.21107 | 34024 ft | 433 kts | 208° |
| 2026-04-20 15:58 | -21.83028 | -51.24004 | 34028 ft | 434 kts | 208° |
| 2026-04-20 15:58 | -21.88429 | -51.26923 | 34035 ft | 435 kts | 208° |
| 2026-04-20 15:59 | -21.93840 | -51.29852 | 34048 ft | 434 kts | 208° |
| 2026-04-20 15:59 | -21.99238 | -51.32780 | 34060 ft | 435 kts | 208° |
| 2026-04-20 16:00 | -22.04642 | -51.35712 | 34069 ft | 435 kts | 208° |
| 2026-04-20 16:00 | -22.10047 | -51.38645 | 34082 ft | 435 kts | 208° |
| 2026-04-20 16:01 | -22.15460 | -51.41586 | 34084 ft | 436 kts | 208° |
| 2026-04-20 16:01 | -22.20996 | -51.44301 | 34082 ft | 437 kts | 205° |
| 2026-04-20 16:02 | -22.26584 | -51.46881 | 34080 ft | 437 kts | 205° |
| 2026-04-20 16:02 | -22.32181 | -51.49471 | 34070 ft | 437 kts | 205° |
| 2026-04-20 16:03 | -22.37773 | -51.52061 | 34060 ft | 437 kts | 205° |
| 2026-04-20 16:03 | -22.43362 | -51.54653 | 34049 ft | 438 kts | 205° |
| 2026-04-20 16:04 | -22.48965 | -51.57253 | 34034 ft | 438 kts | 205° |
| 2026-04-20 16:04 | -22.54573 | -51.59857 | 34033 ft | 438 kts | 205° |
| 2026-04-20 16:05 | -22.60173 | -51.62460 | 34033 ft | 438 kts | 205° |
| 2026-04-20 16:05 | -22.65775 | -51.65067 | 34036 ft | 438 kts | 205° |
| 2026-04-20 16:06 | -22.71379 | -51.67678 | 34043 ft | 438 kts | 205° |
| 2026-04-20 16:06 | -22.76983 | -51.70290 | 34036 ft | 439 kts | 205° |
| 2026-04-20 16:07 | -22.82591 | -51.72916 | 34036 ft | 439 kts | 206° |
| 2026-04-20 16:07 | -22.87628 | -51.76562 | 34038 ft | 436 kts | 220° |
| 2026-04-20 16:08 | -22.92315 | -51.80743 | 34035 ft | 436 kts | 220° |
| 2026-04-20 16:08 | -22.97020 | -51.84910 | 34036 ft | 437 kts | 220° |
| 2026-04-20 16:09 | -23.01745 | -51.89077 | 34034 ft | 437 kts | 220° |
| 2026-04-20 16:09 | -23.06439 | -51.93221 | 34033 ft | 437 kts | 220° |
| 2026-04-20 16:10 | -23.11158 | -51.97389 | 34035 ft | 437 kts | 220° |
| 2026-04-20 16:10 | -23.15868 | -52.01551 | 34031 ft | 434 kts | 220° |
| 2026-04-20 16:11 | -23.20515 | -52.05664 | 34054 ft | 430 kts | 220° |
| 2026-04-20 16:11 | -23.25197 | -52.09810 | 34068 ft | 438 kts | 220° |
| 2026-04-20 16:12 | -23.29922 | -52.14001 | 34075 ft | 438 kts | 220° |
| 2026-04-20 16:12 | -23.34640 | -52.18188 | 34078 ft | 438 kts | 220° |
| 2026-04-20 16:13 | -23.39387 | -52.22403 | 34070 ft | 437 kts | 221° |
| 2026-04-20 16:13 | -23.44044 | -52.26545 | 34060 ft | 431 kts | 221° |
| 2026-04-20 16:14 | -23.48677 | -52.30671 | 34049 ft | 433 kts | 221° |
| 2026-04-20 16:14 | -23.53374 | -52.34856 | 34034 ft | 437 kts | 221° |
| 2026-04-20 16:15 | -23.58086 | -52.39055 | 34016 ft | 437 kts | 221° |
| 2026-04-20 16:15 | -23.62793 | -52.43254 | 34018 ft | 437 kts | 221° |
| 2026-04-20 16:16 | -23.67497 | -52.47459 | 34016 ft | 436 kts | 221° |
| 2026-04-20 16:16 | -23.72146 | -52.51614 | 34019 ft | 427 kts | 221° |
| 2026-04-20 16:17 | -23.76769 | -52.55751 | 34023 ft | 434 kts | 221° |
| 2026-04-20 16:17 | -23.81445 | -52.59942 | 34021 ft | 435 kts | 221° |
| 2026-04-20 16:18 | -23.86122 | -52.64136 | 34018 ft | 435 kts | 221° |
| 2026-04-20 16:18 | -23.90794 | -52.68332 | 34025 ft | 435 kts | 222° |
| 2026-04-20 16:19 | -23.95461 | -52.72524 | 34020 ft | 432 kts | 221° |
| 2026-04-20 16:19 | -24.00066 | -52.76669 | 34020 ft | 429 kts | 222° |
| 2026-04-20 16:20 | -24.04717 | -52.80859 | 34026 ft | 435 kts | 222° |
| 2026-04-20 16:20 | -24.09392 | -52.85069 | 34020 ft | 435 kts | 222° |
| 2026-04-20 16:21 | -24.14059 | -52.89277 | 34014 ft | 435 kts | 222° |
| 2026-04-20 16:21 | -24.18728 | -52.93493 | 34014 ft | 434 kts | 222° |
| 2026-04-20 16:22 | -24.23364 | -52.97684 | 34010 ft | 429 kts | 222° |
| 2026-04-20 16:22 | -24.27951 | -53.01836 | 34015 ft | 431 kts | 222° |
| 2026-04-20 16:23 | -24.32609 | -53.06054 | 34014 ft | 435 kts | 222° |
| 2026-04-20 16:23 | -24.37278 | -53.10284 | 34014 ft | 435 kts | 222° |
| 2026-04-20 16:24 | -24.41944 | -53.14517 | 34012 ft | 435 kts | 222° |
| 2026-04-20 16:24 | -24.46546 | -53.18695 | 34003 ft | 416 kts | 222° |
| 2026-04-20 16:25 | -24.48741 | -53.20686 | 33991 ft | 402 kts | 223° |
| 2026-04-20 16:25 | -24.50884 | -53.22635 | 33566 ft | 401 kts | 222° |
| 2026-04-20 16:25 | -24.53042 | -53.24603 | 32738 ft | 404 kts | 222° |
| 2026-04-20 16:25 | -24.55212 | -53.26581 | 31981 ft | 408 kts | 222° |
| 2026-04-20 16:26 | -24.57416 | -53.28590 | 31243 ft | 414 kts | 221° |
| 2026-04-20 16:26 | -24.59648 | -53.30624 | 30540 ft | 419 kts | 221° |
| 2026-04-20 16:26 | -24.61906 | -53.32681 | 29804 ft | 424 kts | 221° |
| 2026-04-20 16:26 | -24.64176 | -53.34747 | 29056 ft | 423 kts | 221° |
| 2026-04-20 16:27 | -24.66438 | -53.36808 | 28394 ft | 420 kts | 221° |
| 2026-04-20 16:27 | -24.68678 | -53.38850 | 27762 ft | 417 kts | 221° |
| 2026-04-20 16:27 | -24.70903 | -53.40880 | 27147 ft | 414 kts | 221° |
| 2026-04-20 16:27 | -24.73114 | -53.42901 | 26532 ft | 412 kts | 221° |
| 2026-04-20 16:28 | -24.75309 | -53.44909 | 25941 ft | 409 kts | 221° |
| 2026-04-20 16:28 | -24.77491 | -53.46906 | 25354 ft | 406 kts | 222° |
| 2026-04-20 16:28 | -24.79657 | -53.48890 | 24779 ft | 404 kts | 222° |
| 2026-04-20 16:28 | -24.81817 | -53.50870 | 24176 ft | 403 kts | 222° |
| 2026-04-20 16:29 | -24.83970 | -53.52842 | 23544 ft | 402 kts | 222° |
| 2026-04-20 16:29 | -24.86115 | -53.54808 | 22855 ft | 401 kts | 222° |
| 2026-04-20 16:29 | -24.88259 | -53.56774 | 22198 ft | 401 kts | 222° |
| 2026-04-20 16:29 | -24.90405 | -53.58743 | 21551 ft | 401 kts | 222° |
| 2026-04-20 16:30 | -24.92539 | -53.60701 | 20928 ft | 400 kts | 222° |
| 2026-04-20 16:30 | -24.94677 | -53.62664 | 20322 ft | 399 kts | 222° |
| 2026-04-20 16:30 | -24.96800 | -53.64611 | 19749 ft | 397 kts | 223° |
| 2026-04-20 16:30 | -24.98921 | -53.66560 | 19199 ft | 396 kts | 222° |
| 2026-04-20 16:31 | -25.01034 | -53.68503 | 18654 ft | 396 kts | 222° |
| 2026-04-20 16:31 | -25.03152 | -53.70452 | 18086 ft | 397 kts | 222° |
| 2026-04-20 16:31 | -25.05269 | -53.72401 | 17483 ft | 397 kts | 222° |
| 2026-04-20 16:31 | -25.07389 | -53.74352 | 16897 ft | 399 kts | 222° |
| 2026-04-20 16:32 | -25.09525 | -53.76321 | 16314 ft | 399 kts | 222° |
| 2026-04-20 16:32 | -25.11660 | -53.78288 | 15769 ft | 400 kts | 221° |
| 2026-04-20 16:32 | -25.13790 | -53.80251 | 15233 ft | 399 kts | 221° |
| 2026-04-20 16:32 | -25.15923 | -53.82219 | 14691 ft | 399 kts | 221° |
| 2026-04-20 16:33 | -25.18049 | -53.84178 | 14156 ft | 398 kts | 221° |
| 2026-04-20 16:33 | -25.20176 | -53.86141 | 13593 ft | 398 kts | 221° |
| 2026-04-20 16:33 | -25.22316 | -53.88045 | 13039 ft | 394 kts | 217° |
| 2026-04-20 16:33 | -25.24682 | -53.89541 | 12506 ft | 389 kts | 208° |
| 2026-04-20 16:34 | -25.27083 | -53.90885 | 11970 ft | 384 kts | 208° |
| 2026-04-20 16:34 | -25.29452 | -53.92203 | 11453 ft | 378 kts | 208° |
| 2026-04-20 16:34 | -25.31771 | -53.93502 | 11094 ft | 368 kts | 207° |
| 2026-04-20 16:34 | -25.34015 | -53.94764 | 10856 ft | 355 kts | 207° |
| 2026-04-20 16:35 | -25.36176 | -53.95983 | 10666 ft | 341 kts | 207° |
| 2026-04-20 16:35 | -25.38249 | -53.97154 | 10487 ft | 328 kts | 207° |
| 2026-04-20 16:35 | -25.40240 | -53.98279 | 10319 ft | 315 kts | 207° |
| 2026-04-20 16:35 | -25.42152 | -53.99363 | 10160 ft | 303 kts | 207° |
| 2026-04-20 16:36 | -25.44016 | -54.00418 | 9741 ft | 301 kts | 207° |
| 2026-04-20 16:36 | -25.45882 | -54.01475 | 9241 ft | 301 kts | 208° |
| 2026-04-20 16:36 | -25.47668 | -54.02674 | 8731 ft | 300 kts | 222° |
| 2026-04-20 16:36 | -25.49054 | -54.04367 | 8315 ft | 295 kts | 233° |
| 2026-04-20 16:37 | -25.50294 | -54.06159 | 7883 ft | 290 kts | 235° |
| 2026-04-20 16:37 | -25.51501 | -54.07916 | 7484 ft | 284 kts | 235° |
| 2026-04-20 16:37 | -25.52700 | -54.09645 | 7122 ft | 283 kts | 235° |
| 2026-04-20 16:37 | -25.53905 | -54.11372 | 6759 ft | 284 kts | 235° |
| 2026-04-20 16:38 | -25.55121 | -54.13108 | 6385 ft | 286 kts | 235° |
| 2026-04-20 16:38 | -25.55928 | -54.14258 | 6128 ft | 287 kts | 235° |
| 2026-04-20 16:38 | -25.57156 | -54.16009 | 5735 ft | 288 kts | 236° |
| 2026-04-20 16:38 | -25.58380 | -54.17752 | 5370 ft | 286 kts | 236° |
| 2026-04-20 16:39 | -25.59595 | -54.19480 | 5021 ft | 283 kts | 236° |
| 2026-04-20 16:39 | -25.60808 | -54.21207 | 4662 ft | 284 kts | 237° |
| 2026-04-20 16:39 | -25.62026 | -54.22939 | 4286 ft | 285 kts | 236° |
| 2026-04-20 16:39 | -25.63248 | -54.24674 | 3906 ft | 287 kts | 234° |
| 2026-04-20 16:40 | -25.64530 | -54.26372 | 3530 ft | 289 kts | 233° |
| 2026-04-20 16:40 | -25.65835 | -54.28066 | 3197 ft | 287 kts | 233° |
| 2026-04-20 16:40 | -25.67108 | -54.29723 | 3001 ft | 277 kts | 233° |
| 2026-04-20 16:40 | -25.68276 | -54.31336 | 2946 ft | 259 kts | 242° |
| 2026-04-20 16:41 | -25.68819 | -54.33098 | 2932 ft | 230 kts | 273° |
| 2026-04-20 16:41 | -25.68541 | -54.34746 | 2693 ft | 211 kts | 298° |
| 2026-04-20 16:41 | -25.67888 | -54.36132 | 2491 ft | 195 kts | 304° |
| 2026-04-20 16:41 | -25.67282 | -54.37368 | 2445 ft | 169 kts | 303° |
| 2026-04-20 16:42 | -25.66789 | -54.38422 | 2469 ft | 145 kts | 303° |
| 2026-04-20 16:42 | -25.66349 | -54.39409 | 2489 ft | 142 kts | 301° |
| 2026-04-20 16:42 | -25.65921 | -54.40386 | 2463 ft | 141 kts | 302° |
| 2026-04-20 16:42 | -25.65425 | -54.41308 | 2401 ft | 137 kts | 317° |
| 2026-04-20 16:43 | -25.64766 | -54.42101 | 2224 ft | 143 kts | 316° |
| 2026-04-20 16:43 | -25.64114 | -54.42944 | 2010 ft | 143 kts | 315° |
| 2026-04-20 16:43 | -25.63468 | -54.43773 | 1803 ft | 143 kts | 315° |
| 2026-04-20 16:43 | -25.62812 | -54.44616 | 1620 ft | 145 kts | 315° |
| 2026-04-20 16:44 | -25.62155 | -54.45461 | 1436 ft | 144 kts | 315° |
| 2026-04-20 16:44 | -25.61499 | -54.46304 | 1238 ft | 144 kts | 315° |
| 2026-04-20 16:44 | -25.60846 | -54.47125 | 1039 ft | 140 kts | 315° |
| 2026-04-20 16:44 | -25.60209 | -54.47940 | 836 ft | 140 kts | 314° |
| 2026-04-20 16:45 | -25.59637 | -54.48665 | 804 ft | 96 kts | 312° |
| 2026-04-20 16:45 | -25.59404 | -54.48961 | 806 ft | 20 kts | 309° |
| 2026-04-20 16:45 | -25.59374 | -54.49043 | 805 ft | 8 kts | 284° |
| 2026-04-20 16:45 | -25.59344 | -54.49035 | 805 ft | 6 kts | 108° |
| 2026-04-20 16:46 | -25.59376 | -54.48994 | 805 ft | 8 kts | 132° |
| 2026-04-20 16:46 | -25.59417 | -54.48945 | 806 ft | 9 kts | 133° |
| 2026-04-20 16:46 | -25.59466 | -54.48895 | 807 ft | 10 kts | 166° |
| 2026-04-20 16:46 | -25.59529 | -54.48930 | 805 ft | 10 kts | 207° |
| 2026-04-20 16:47 | -25.59588 | -54.48898 | 804 ft | 9 kts | 131° |
| 2026-04-20 16:47 | -25.59625 | -54.48851 | 804 ft | 8 kts | 130° |
| 2026-04-20 16:47 | -25.59653 | -54.48823 | 804 ft | 3 kts | 169° |
| 2026-04-20 16:47 | -25.59677 | -54.48833 | 804 ft | 3 kts | 220° |
| 2026-04-20 16:48 | -25.59691 | -54.48847 | 804 ft | 2 kts | 220° |
| 2026-04-20 16:48 | -25.59694 | -54.48850 | 804 ft | 0 kts | 220° |